createdAt,value
2022-10-25T00:00:06.519Z,74.21
2022-10-25T00:05:52.208Z,74.21
2022-10-25T00:11:20.931Z,74.28
2022-10-25T00:16:41.725Z,74.42
2022-10-25T00:22:02.432Z,74.37
2022-10-25T00:27:23.066Z,75.10
2022-10-25T00:32:43.716Z,74.53
2022-10-25T00:38:04.585Z,74.44
2022-10-25T00:43:47.959Z,74.16
2022-10-25T00:49:15.534Z,74.61
2022-10-25T00:54:42.690Z,74.55
2022-10-25T01:00:06.675Z,74.81
2022-10-25T01:05:27.680Z,74.95
2022-10-25T01:10:48.964Z,74.74
2022-10-25T01:16:51.603Z,74.90
2022-10-25T01:22:37.239Z,75.04
2022-10-25T01:28:07.279Z,74.98
2022-10-25T01:33:33.058Z,75.12
2022-10-25T01:39:33.525Z,75.31
2022-10-25T01:45:16.415Z,75.44
2022-10-25T01:50:41.380Z,75.40
2022-10-25T01:56:05.045Z,75.55
2022-10-25T02:01:35.998Z,75.78
2022-10-25T02:07:07.894Z,75.38
2022-10-25T02:12:53.127Z,75.53
2022-10-25T02:18:20.332Z,75.28
2022-10-25T02:23:42.023Z,74.98
2022-10-25T02:29:04.591Z,75.26
2022-10-25T02:34:25.866Z,75.09
2022-10-25T02:39:47.050Z,75.21
2022-10-25T02:45:08.690Z,74.98
2022-10-25T02:50:29.485Z,75.43
2022-10-25T02:56:03.136Z,74.98
2022-10-25T03:01:25.476Z,74.79
2022-10-25T03:06:45.878Z,74.48
2022-10-25T03:12:06.691Z,74.42
2022-10-25T03:17:27.263Z,74.58
2022-10-25T03:22:47.996Z,74.66
2022-10-25T03:28:08.981Z,75.23
2022-10-25T03:38:55.234Z,75.15
2022-10-25T03:44:15.934Z,74.96
2022-10-25T03:49:36.642Z,75.12
2022-10-25T03:54:57.233Z,74.63
2022-10-25T04:00:18.028Z,75.01
2022-10-25T04:05:38.996Z,74.81
2022-10-25T04:10:59.633Z,74.82
2022-10-25T04:16:20.218Z,74.81
2022-10-25T04:21:41.297Z,74.88
2022-10-25T04:27:01.925Z,74.31
2022-10-25T04:32:22.556Z,74.45
2022-10-25T04:37:43.254Z,74.30
2022-10-25T04:43:03.996Z,74.00
2022-10-25T04:48:24.608Z,74.52
2022-10-25T04:53:45.395Z,73.93
2022-10-25T04:59:07.502Z,76.55
2022-10-25T05:04:28.526Z,74.95
2022-10-25T05:09:49.274Z,74.27
2022-10-25T05:15:10.395Z,73.91
2022-10-25T05:20:31.049Z,73.92
2022-10-25T05:26:06.761Z,74.32
2022-10-25T05:31:30.153Z,73.76
2022-10-25T05:36:51.018Z,73.94
2022-10-25T05:42:11.903Z,73.68
2022-10-25T05:47:32.555Z,73.78
2022-10-25T05:52:53.434Z,74.31
2022-10-25T05:58:15.567Z,73.94
2022-10-25T06:03:37.191Z,74.37
2022-10-25T06:08:59.867Z,74.50
2022-10-25T06:14:20.912Z,74.69
2022-10-25T06:19:41.617Z,74.52
2022-10-25T06:25:02.327Z,74.62
2022-10-25T06:30:22.990Z,74.60
2022-10-25T06:35:43.511Z,74.55
2022-10-25T06:41:07.062Z,74.68
2022-10-25T06:46:30.621Z,74.60
2022-10-25T06:51:51.584Z,74.66
2022-10-25T06:57:12.255Z,74.53
2022-10-25T07:02:33.149Z,74.75
2022-10-25T07:07:53.892Z,74.41
2022-10-25T07:13:14.679Z,74.29
2022-10-25T07:18:36.285Z,74.52
2022-10-25T07:23:57.955Z,74.35
2022-10-25T07:29:18.947Z,74.55
2022-10-25T07:34:39.550Z,74.52
2022-10-25T07:40:00.596Z,74.29
2022-10-25T07:45:24.367Z,74.31
2022-10-25T07:50:47.751Z,74.35
2022-10-25T07:56:23.189Z,74.25
2022-10-25T08:01:44.607Z,74.36
2022-10-25T08:07:05.375Z,74.35
2022-10-25T08:12:26.252Z,74.26
2022-10-25T08:17:47.075Z,74.14
2022-10-25T08:23:07.820Z,75.33
2022-10-25T08:28:31.102Z,74.81
2022-10-25T08:33:51.556Z,74.30
2022-10-25T08:39:12.239Z,74.30
2022-10-25T08:44:44.510Z,74.21
2022-10-25T08:50:15.045Z,74.22
2022-10-25T08:55:41.711Z,74.21
2022-10-25T09:01:20.950Z,74.03
2022-10-25T09:07:08.798Z,73.90
2022-10-25T09:12:46.790Z,73.72
2022-10-25T09:18:16.006Z,73.60
2022-10-25T09:23:36.563Z,74.03
2022-10-25T09:29:11.080Z,73.26
2022-10-25T09:34:35.747Z,73.38
2022-10-25T09:40:01.170Z,73.50
2022-10-25T09:45:42.061Z,72.93
2022-10-25T09:51:38.286Z,72.77
2022-10-25T09:56:59.314Z,73.01
2022-10-25T10:02:24.742Z,73.09
2022-10-25T10:07:47.250Z,73.25
2022-10-25T10:13:17.469Z,72.81
2022-10-25T10:18:38.480Z,72.48
2022-10-25T10:24:05.422Z,72.42
2022-10-25T10:29:28.841Z,71.72
2022-10-25T10:34:55.336Z,72.02
2022-10-25T10:40:15.802Z,72.28
2022-10-25T10:45:36.580Z,72.05
2022-10-25T10:50:57.313Z,71.73
2022-10-25T10:56:23.116Z,71.99
2022-10-25T11:01:44.239Z,71.68
2022-10-25T11:07:24.525Z,71.90
2022-10-25T11:12:45.284Z,71.60
2022-10-25T11:18:07.588Z,71.35
2022-10-25T11:23:38.697Z,71.10
2022-10-25T11:29:19.472Z,71.31
2022-10-25T11:34:48.180Z,71.19
2022-10-25T11:40:17.091Z,70.85
2022-10-25T11:45:44.277Z,70.63
2022-10-25T11:51:14.205Z,70.54
2022-10-25T11:57:00.583Z,70.77
2022-10-25T12:03:03.183Z,70.46
2022-10-25T12:08:42.350Z,70.90
2022-10-25T12:14:11.015Z,71.18
2022-10-25T12:19:42.028Z,71.15
2022-10-25T12:25:14.434Z,70.68
2022-10-25T12:30:40.965Z,70.29
2022-10-25T12:36:18.330Z,70.01
2022-10-25T12:41:40.647Z,69.65
2022-10-25T12:47:26.107Z,69.44
2022-10-25T12:53:13.658Z,69.49
2022-10-25T12:58:52.906Z,69.56
2022-10-25T13:04:42.240Z,69.27
2022-10-25T13:10:15.434Z,69.09
2022-10-25T13:15:46.389Z,69.09
2022-10-25T13:21:37.513Z,69.35
2022-10-25T13:27:13.719Z,68.79
2022-10-25T13:32:36.323Z,69.09
2022-10-25T13:38:09.687Z,68.96
2022-10-25T13:43:30.598Z,68.70
2022-10-25T13:48:51.490Z,69.19
2022-10-25T13:54:12.810Z,69.51
2022-10-25T13:59:49.975Z,69.63
2022-10-25T14:05:11.844Z,69.24
2022-10-25T14:10:36.084Z,69.49
2022-10-25T14:16:00.905Z,69.35
2022-10-25T14:21:24.927Z,69.68
2022-10-25T14:26:55.628Z,70.22
2022-10-25T14:32:21.809Z,70.20
2022-10-25T14:37:43.446Z,69.56
2022-10-25T14:43:35.490Z,69.57
2022-10-25T14:48:58.479Z,69.28
2022-10-25T14:54:25.882Z,69.40
2022-10-25T14:59:51.512Z,68.88
2022-10-25T15:05:20.525Z,69.03
2022-10-25T15:10:44.169Z,69.03
2022-10-25T15:16:24.917Z,69.10
2022-10-25T15:21:49.012Z,68.85
2022-10-25T15:27:27.328Z,68.83
2022-10-25T15:32:48.372Z,69.86
2022-10-25T15:38:11.548Z,69.64
2022-10-25T15:43:32.115Z,69.19
2022-10-25T15:48:53.163Z,68.91
2022-10-25T15:54:19.880Z,68.73
2022-10-25T15:59:40.440Z,68.96
2022-10-25T16:05:01.265Z,68.78
2022-10-25T16:10:24.266Z,68.79
2022-10-25T16:15:45.136Z,68.89
2022-10-25T16:21:05.925Z,68.82
2022-10-25T16:26:35.019Z,69.66
2022-10-25T16:31:55.640Z,69.05
2022-10-25T16:37:16.289Z,68.94
2022-10-25T16:42:38.772Z,68.94
2022-10-25T16:48:00.207Z,68.79
2022-10-25T16:53:21.189Z,69.15
2022-10-25T16:58:43.066Z,68.68
2022-10-25T17:04:05.251Z,68.56
2022-10-25T17:09:26.154Z,68.67
2022-10-25T17:14:47.050Z,68.81
2022-10-25T17:20:09.737Z,68.88
2022-10-25T17:25:30.375Z,68.81
2022-10-25T17:30:51.099Z,68.79
2022-10-25T17:36:14.716Z,68.80
2022-10-25T17:41:35.927Z,68.80
2022-10-25T17:46:58.522Z,68.47
2022-10-25T17:52:21.372Z,69.05
2022-10-25T17:57:43.688Z,68.89
2022-10-25T18:03:04.586Z,69.17
2022-10-25T18:08:25.198Z,69.02
2022-10-25T18:13:45.889Z,69.08
2022-10-25T18:19:07.149Z,69.06
2022-10-25T18:24:31.099Z,68.87
2022-10-25T18:29:51.838Z,68.89
2022-10-25T18:35:12.790Z,69.89
2022-10-25T18:40:33.933Z,68.78
2022-10-25T18:45:58.295Z,68.49
2022-10-25T18:51:21.630Z,69.04
2022-10-25T18:56:42.617Z,69.01
2022-10-25T19:02:03.690Z,69.03
2022-10-25T19:07:24.741Z,69.09
2022-10-25T19:12:45.838Z,69.19
2022-10-25T19:18:06.314Z,68.87
2022-10-25T19:23:27.023Z,69.18
2022-10-25T19:28:48.056Z,69.62
2022-10-25T19:34:09.082Z,70.27
2022-10-25T19:39:32.793Z,70.23
2022-10-25T19:44:54.105Z,70.05
2022-10-25T19:50:14.921Z,70.36
2022-10-25T19:55:35.685Z,70.43
2022-10-25T20:01:10.750Z,70.73
2022-10-25T20:06:35.467Z,70.86
2022-10-25T20:11:56.592Z,71.03
2022-10-25T20:17:17.729Z,70.90
2022-10-25T20:22:38.471Z,69.92
2022-10-25T20:28:02.441Z,70.17
2022-10-25T20:33:23.499Z,69.74
2022-10-25T20:38:45.493Z,69.95
2022-10-25T20:44:08.722Z,70.34
2022-10-25T20:49:30.631Z,70.35
2022-10-25T20:54:51.495Z,70.16
2022-10-25T21:00:16.965Z,70.05
2022-10-25T21:05:43.061Z,70.22
2022-10-25T21:11:06.323Z,69.93
2022-10-25T21:16:26.972Z,69.59
2022-10-25T21:21:47.464Z,70.28
2022-10-25T21:27:09.997Z,69.76
2022-10-25T21:32:31.118Z,69.95
2022-10-25T21:37:52.174Z,69.87
2022-10-25T21:43:12.976Z,69.58
2022-10-25T21:48:35.109Z,69.93
2022-10-25T21:53:55.993Z,69.29
2022-10-25T21:59:16.468Z,69.46
2022-10-25T22:04:37.237Z,69.41
2022-10-25T22:09:58.012Z,69.76
2022-10-25T22:15:18.875Z,69.48
2022-10-25T22:20:39.505Z,69.62
2022-10-25T22:26:08.510Z,69.32
2022-10-25T22:31:30.070Z,69.53
2022-10-25T22:36:50.747Z,69.45
2022-10-25T22:42:13.686Z,69.93
2022-10-25T22:47:34.589Z,69.70
2022-10-25T22:52:55.923Z,70.27
2022-10-25T22:58:16.485Z,70.52
2022-10-25T23:03:44.930Z,69.40
2022-10-25T23:09:11.737Z,69.13
2022-10-25T23:14:32.525Z,69.35
2022-10-25T23:19:53.223Z,69.83
2022-10-25T23:25:13.828Z,69.37
2022-10-25T23:30:37.809Z,69.22
2022-10-25T23:36:08.922Z,69.08
2022-10-25T23:41:29.316Z,68.75
2022-10-25T23:46:50.305Z,69.67
2022-10-25T23:52:11.045Z,69.31
2022-10-25T23:57:31.722Z,69.61
